KHB102 UHHH-UIII
Flight info
| Callsign | KHB102 |
|---|---|
| Flight time | N/A |
| Altitude | 34000 |
| Route | DIDEK2U DIDEK N992 GU G229 NIKTO P873 KUDAR A807 USONA USONA5B |
| Aircraft | A320/M-SDE3FGHIRWY/LB1 |
Departure
| Time | 2026-04-20 06:25 |
|---|---|
| Airport | Khabarovsk Novy Airport (UHHH) |
Arrival
| Time | N/A |
|---|---|
| Airport | Irkutsk International Airport (UIII) |
| Time | Latitude | Longitude | Altitude | Speed | Heading |
|---|---|---|---|---|---|
| 2026-04-20 05:42 | 48.52418 | 135.17367 | 246 ft | 0 kts | 312° |
| 2026-04-20 06:04 | 48.52418 | 135.17368 | 246 ft | 0 kts | 312° |
| 2026-04-20 06:20 | 48.52420 | 135.17363 | 274 ft | 2 kts | 312° |
| 2026-04-20 06:20 | 48.52426 | 135.17354 | 270 ft | 3 kts | 312° |
| 2026-04-20 06:21 | 48.52451 | 135.17322 | 246 ft | 5 kts | 334° |
| 2026-04-20 06:21 | 48.52512 | 135.17381 | 245 ft | 10 kts | 73° |
| 2026-04-20 06:21 | 48.52483 | 135.17465 | 245 ft | 8 kts | 134° |
| 2026-04-20 06:21 | 48.52447 | 135.17523 | 245 ft | 6 kts | 132° |
| 2026-04-20 06:22 | 48.52414 | 135.17578 | 246 ft | 7 kts | 132° |
| 2026-04-20 06:22 | 48.52389 | 135.17619 | 246 ft | 10 kts | 132° |
| 2026-04-20 06:22 | 48.52342 | 135.17697 | 246 ft | 9 kts | 132° |
| 2026-04-20 06:22 | 48.52305 | 135.17759 | 246 ft | 7 kts | 132° |
| 2026-04-20 06:23 | 48.52283 | 135.17821 | 246 ft | 9 kts | 93° |
| 2026-04-20 06:23 | 48.52313 | 135.17891 | 245 ft | 0 kts | 41° |
| 2026-04-20 06:24 | 48.52360 | 135.17955 | 243 ft | 36 kts | 42° |
| 2026-04-20 06:24 | 48.52756 | 135.18490 | 246 ft | 113 kts | 42° |
| 2026-04-20 06:24 | 48.53493 | 135.19483 | 313 ft | 163 kts | 40° |
| 2026-04-20 06:25 | 48.54326 | 135.20593 | 1125 ft | 158 kts | 39° |
| 2026-04-20 06:25 | 48.55367 | 135.21067 | 1897 ft | 169 kts | 349° |
| 2026-04-20 06:25 | 48.56450 | 135.20213 | 2105 ft | 187 kts | 306° |
| 2026-04-20 06:25 | 48.57071 | 135.18508 | 2374 ft | 198 kts | 291° |
| 2026-04-20 06:26 | 48.57707 | 135.16594 | 2743 ft | 210 kts | 294° |
| 2026-04-20 06:26 | 48.58441 | 135.14567 | 2980 ft | 232 kts | 295° |
| 2026-04-20 06:26 | 48.59254 | 135.12314 | 3266 ft | 256 kts | 295° |
| 2026-04-20 06:26 | 48.60132 | 135.09910 | 3898 ft | 265 kts | 295° |
| 2026-04-20 06:27 | 48.61029 | 135.07467 | 4718 ft | 267 kts | 295° |
| 2026-04-20 06:27 | 48.61937 | 135.04993 | 5502 ft | 271 kts | 295° |
| 2026-04-20 06:27 | 48.62857 | 135.02480 | 6258 ft | 275 kts | 295° |
| 2026-04-20 06:27 | 48.63787 | 134.99930 | 6971 ft | 279 kts | 294° |
| 2026-04-20 06:28 | 48.64726 | 134.97336 | 7680 ft | 283 kts | 293° |
| 2026-04-20 06:28 | 48.65675 | 134.94712 | 8407 ft | 286 kts | 291° |
| 2026-04-20 06:28 | 48.66636 | 134.92055 | 9141 ft | 289 kts | 291° |
| 2026-04-20 06:28 | 48.67604 | 134.89369 | 9831 ft | 293 kts | 291° |
| 2026-04-20 06:29 | 48.68597 | 134.86601 | 10052 ft | 315 kts | 291° |
| 2026-04-20 06:29 | 48.69674 | 134.83576 | 10192 ft | 337 kts | 291° |
| 2026-04-20 06:29 | 48.70820 | 134.80359 | 10319 ft | 358 kts | 292° |
| 2026-04-20 06:29 | 48.72035 | 134.76981 | 10693 ft | 369 kts | 292° |
| 2026-04-20 06:30 | 48.73274 | 134.73560 | 11279 ft | 372 kts | 292° |
| 2026-04-20 06:30 | 48.74522 | 134.70124 | 11910 ft | 374 kts | 291° |
| 2026-04-20 06:30 | 48.75783 | 134.66652 | 12554 ft | 376 kts | 291° |
| 2026-04-20 06:30 | 48.77042 | 134.63171 | 13172 ft | 377 kts | 290° |
| 2026-04-20 06:31 | 48.78307 | 134.59663 | 13766 ft | 380 kts | 290° |
| 2026-04-20 06:31 | 48.79569 | 134.56141 | 14316 ft | 381 kts | 290° |
| 2026-04-20 06:31 | 48.80828 | 134.52595 | 14864 ft | 383 kts | 290° |
| 2026-04-20 06:31 | 48.82093 | 134.49025 | 15408 ft | 385 kts | 290° |
| 2026-04-20 06:32 | 48.83367 | 134.45435 | 15942 ft | 388 kts | 290° |
| 2026-04-20 06:32 | 48.84649 | 134.41821 | 16481 ft | 390 kts | 290° |
| 2026-04-20 06:32 | 48.85938 | 134.38189 | 17025 ft | 392 kts | 290° |
| 2026-04-20 06:32 | 48.87233 | 134.34535 | 17573 ft | 394 kts | 290° |
| 2026-04-20 06:33 | 48.88533 | 134.30862 | 18080 ft | 396 kts | 290° |
| 2026-04-20 06:33 | 48.89838 | 134.27164 | 18514 ft | 398 kts | 290° |
| 2026-04-20 06:33 | 48.91156 | 134.23444 | 18933 ft | 402 kts | 291° |
| 2026-04-20 06:33 | 48.92545 | 134.19731 | 19337 ft | 406 kts | 292° |
| 2026-04-20 06:34 | 48.93999 | 134.16029 | 19730 ft | 410 kts | 294° |
| 2026-04-20 06:34 | 48.95493 | 134.12318 | 20115 ft | 413 kts | 294° |
| 2026-04-20 06:34 | 48.98516 | 134.04823 | 20861 ft | 418 kts | 293° |
| 2026-04-20 06:35 | 49.00024 | 134.01025 | 21226 ft | 420 kts | 293° |
| 2026-04-20 06:35 | 49.01529 | 133.97196 | 21586 ft | 423 kts | 293° |
| 2026-04-20 06:35 | 49.03036 | 133.93338 | 21936 ft | 425 kts | 292° |
| 2026-04-20 06:35 | 49.04546 | 133.89458 | 22286 ft | 427 kts | 292° |
| 2026-04-20 06:36 | 49.06063 | 133.85556 | 22631 ft | 429 kts | 292° |
| 2026-04-20 06:36 | 49.07588 | 133.81632 | 22963 ft | 431 kts | 292° |
| 2026-04-20 06:36 | 49.09122 | 133.77691 | 23289 ft | 433 kts | 292° |
| 2026-04-20 06:36 | 49.10660 | 133.73734 | 23567 ft | 435 kts | 292° |
| 2026-04-20 06:37 | 49.12205 | 133.69751 | 23844 ft | 436 kts | 292° |
| 2026-04-20 06:37 | 49.13752 | 133.65750 | 24116 ft | 438 kts | 291° |
| 2026-04-20 06:37 | 49.15297 | 133.61744 | 24382 ft | 440 kts | 291° |
| 2026-04-20 06:37 | 49.16857 | 133.57699 | 24638 ft | 441 kts | 291° |
| 2026-04-20 06:38 | 49.18415 | 133.53655 | 24883 ft | 443 kts | 291° |
| 2026-04-20 06:38 | 49.19974 | 133.49595 | 25130 ft | 444 kts | 290° |
| 2026-04-20 06:38 | 49.21654 | 133.45587 | 25367 ft | 454 kts | 297° |
| 2026-04-20 06:38 | 49.23778 | 133.41909 | 25609 ft | 468 kts | 306° |
| 2026-04-20 06:39 | 49.26095 | 133.38407 | 25820 ft | 470 kts | 305° |
| 2026-04-20 06:39 | 49.28430 | 133.34887 | 25999 ft | 472 kts | 305° |
| 2026-04-20 06:39 | 49.30772 | 133.31363 | 26206 ft | 473 kts | 305° |
| 2026-04-20 06:39 | 49.33123 | 133.27819 | 26417 ft | 475 kts | 305° |
| 2026-04-20 06:40 | 49.35481 | 133.24247 | 26627 ft | 477 kts | 304° |
| 2026-04-20 06:40 | 49.37837 | 133.20660 | 26818 ft | 478 kts | 304° |
| 2026-04-20 06:40 | 49.40199 | 133.17046 | 27035 ft | 479 kts | 304° |
| 2026-04-20 06:40 | 49.42559 | 133.13427 | 27317 ft | 479 kts | 303° |
| 2026-04-20 06:41 | 49.44914 | 133.09809 | 27572 ft | 478 kts | 303° |
| 2026-04-20 06:41 | 49.47266 | 133.06191 | 27830 ft | 478 kts | 303° |
| 2026-04-20 06:41 | 49.49612 | 133.02579 | 28100 ft | 478 kts | 303° |
| 2026-04-20 06:41 | 49.51963 | 132.98958 | 28350 ft | 478 kts | 302° |
| 2026-04-20 06:42 | 49.54313 | 132.95334 | 28593 ft | 478 kts | 302° |
| 2026-04-20 06:42 | 49.56656 | 132.91711 | 28844 ft | 478 kts | 302° |
| 2026-04-20 06:42 | 49.59003 | 132.88082 | 29120 ft | 478 kts | 302° |
| 2026-04-20 06:42 | 49.61349 | 132.84460 | 29386 ft | 478 kts | 301° |
| 2026-04-20 06:43 | 49.63703 | 132.80824 | 29636 ft | 477 kts | 301° |
| 2026-04-20 06:43 | 49.66043 | 132.77196 | 29887 ft | 477 kts | 301° |
| 2026-04-20 06:43 | 49.68371 | 132.73569 | 30113 ft | 477 kts | 301° |
| 2026-04-20 06:43 | 49.70705 | 132.69923 | 30339 ft | 477 kts | 301° |
| 2026-04-20 06:44 | 49.73034 | 132.66274 | 30551 ft | 477 kts | 301° |
| 2026-04-20 06:44 | 49.75370 | 132.62611 | 30778 ft | 477 kts | 301° |
| 2026-04-20 06:44 | 49.77702 | 132.58965 | 31002 ft | 477 kts | 301° |
| 2026-04-20 06:44 | 49.80033 | 132.55323 | 31209 ft | 477 kts | 301° |
| 2026-04-20 06:45 | 49.82366 | 132.51670 | 31437 ft | 476 kts | 301° |
| 2026-04-20 06:45 | 49.84691 | 132.48022 | 31656 ft | 476 kts | 301° |
| 2026-04-20 06:45 | 49.87006 | 132.44376 | 31883 ft | 475 kts | 301° |
| 2026-04-20 06:45 | 49.89320 | 132.40720 | 32123 ft | 475 kts | 302° |
| 2026-04-20 06:46 | 49.91599 | 132.37109 | 32356 ft | 474 kts | 302° |
| 2026-04-20 06:46 | 49.93898 | 132.33460 | 32599 ft | 473 kts | 302° |
| 2026-04-20 06:46 | 49.96205 | 132.29803 | 32837 ft | 473 kts | 302° |
| 2026-04-20 06:46 | 49.98505 | 132.26160 | 33064 ft | 472 kts | 302° |
| 2026-04-20 06:47 | 50.00803 | 132.22515 | 33294 ft | 472 kts | 303° |
| 2026-04-20 06:47 | 50.03099 | 132.18875 | 33538 ft | 471 kts | 303° |
| 2026-04-20 06:47 | 50.05387 | 132.15226 | 33643 ft | 472 kts | 303° |
| 2026-04-20 06:48 | 50.09945 | 132.07872 | 33657 ft | 472 kts | 303° |
| 2026-04-20 06:48 | 50.14494 | 132.00489 | 33658 ft | 472 kts | 303° |
| 2026-04-20 06:49 | 50.19049 | 131.93099 | 33653 ft | 472 kts | 303° |
| 2026-04-20 06:49 | 50.23599 | 131.85707 | 33651 ft | 472 kts | 303° |
| 2026-04-20 06:50 | 50.28140 | 131.78294 | 33658 ft | 472 kts | 303° |
| 2026-04-20 06:50 | 50.32677 | 131.70875 | 33659 ft | 472 kts | 303° |
| 2026-04-20 06:51 | 50.37214 | 131.63448 | 33659 ft | 472 kts | 304° |
| 2026-04-20 06:51 | 50.41741 | 131.56005 | 33660 ft | 472 kts | 304° |
| 2026-04-20 06:52 | 50.46263 | 131.48535 | 33660 ft | 472 kts | 304° |
| 2026-04-20 06:52 | 50.50774 | 131.41052 | 33659 ft | 472 kts | 304° |
| 2026-04-20 06:53 | 50.55281 | 131.33557 | 33642 ft | 472 kts | 304° |
| 2026-04-20 06:53 | 50.59783 | 131.26050 | 33641 ft | 472 kts | 304° |
| 2026-04-20 06:54 | 50.64285 | 131.18534 | 33634 ft | 472 kts | 304° |
| 2026-04-20 06:54 | 50.68784 | 131.10995 | 33636 ft | 472 kts | 304° |
| 2026-04-20 06:55 | 50.73286 | 131.03436 | 33634 ft | 473 kts | 304° |
| 2026-04-20 06:55 | 50.77780 | 130.95861 | 33623 ft | 473 kts | 304° |
| 2026-04-20 06:56 | 50.82242 | 130.88306 | 33618 ft | 473 kts | 305° |
| 2026-04-20 06:56 | 50.86738 | 130.80691 | 33616 ft | 474 kts | 305° |
| 2026-04-20 06:57 | 50.91224 | 130.73055 | 33599 ft | 474 kts | 305° |
| 2026-04-20 06:57 | 50.95708 | 130.65394 | 33595 ft | 474 kts | 305° |
| 2026-04-20 06:58 | 51.00184 | 130.57715 | 33592 ft | 474 kts | 305° |
| 2026-04-20 06:58 | 51.04658 | 130.50020 | 33589 ft | 474 kts | 305° |
| 2026-04-20 06:59 | 51.09133 | 130.42314 | 33589 ft | 475 kts | 306° |
| 2026-04-20 06:59 | 51.13599 | 130.34575 | 33586 ft | 475 kts | 306° |
| 2026-04-20 07:00 | 51.18070 | 130.26824 | 33584 ft | 475 kts | 306° |
| 2026-04-20 07:00 | 51.22536 | 130.19049 | 33582 ft | 475 kts | 306° |
| 2026-04-20 07:01 | 51.27001 | 130.11260 | 33583 ft | 476 kts | 306° |
| 2026-04-20 07:01 | 51.31467 | 130.03452 | 33584 ft | 476 kts | 306° |
| 2026-04-20 07:02 | 51.35913 | 129.95611 | 33592 ft | 475 kts | 306° |
| 2026-04-20 07:02 | 51.40281 | 129.87668 | 33587 ft | 475 kts | 306° |
| 2026-04-20 07:03 | 51.44620 | 129.79694 | 33590 ft | 475 kts | 306° |
| 2026-04-20 07:03 | 51.48972 | 129.71727 | 33584 ft | 475 kts | 306° |
| 2026-04-20 07:04 | 51.53338 | 129.63763 | 33592 ft | 475 kts | 306° |
| 2026-04-20 07:04 | 51.57697 | 129.55779 | 33588 ft | 475 kts | 306° |
| 2026-04-20 07:05 | 51.62037 | 129.47790 | 33584 ft | 474 kts | 306° |
| 2026-04-20 07:05 | 51.66375 | 129.39776 | 33582 ft | 474 kts | 306° |
| 2026-04-20 07:06 | 51.70697 | 129.31749 | 33576 ft | 474 kts | 306° |
| 2026-04-20 07:06 | 51.75026 | 129.23708 | 33572 ft | 474 kts | 306° |
| 2026-04-20 07:07 | 51.79347 | 129.15662 | 33571 ft | 474 kts | 306° |
| 2026-04-20 07:07 | 51.82927 | 129.08952 | 33566 ft | 474 kts | 306° |
| 2026-04-20 07:08 | 51.87230 | 129.00870 | 33564 ft | 474 kts | 306° |
| 2026-04-20 07:08 | 51.91541 | 128.92762 | 33557 ft | 475 kts | 306° |
| 2026-04-20 07:09 | 51.95845 | 128.84643 | 33560 ft | 475 kts | 306° |
| 2026-04-20 07:09 | 52.00145 | 128.76489 | 33560 ft | 476 kts | 306° |
| 2026-04-20 07:10 | 52.04439 | 128.68307 | 33554 ft | 476 kts | 306° |
| 2026-04-20 07:10 | 52.08765 | 128.60061 | 33547 ft | 477 kts | 306° |
| 2026-04-20 07:11 | 52.13064 | 128.51840 | 33552 ft | 477 kts | 306° |
| 2026-04-20 07:11 | 52.17364 | 128.43598 | 33560 ft | 477 kts | 306° |
| 2026-04-20 07:12 | 52.21664 | 128.35345 | 33551 ft | 478 kts | 306° |
| 2026-04-20 07:12 | 52.25950 | 128.27058 | 33554 ft | 478 kts | 306° |
| 2026-04-20 07:13 | 52.30236 | 128.18746 | 33554 ft | 478 kts | 306° |
| 2026-04-20 07:13 | 52.34519 | 128.10431 | 33556 ft | 478 kts | 307° |
| 2026-04-20 07:14 | 52.38795 | 128.02089 | 33551 ft | 478 kts | 307° |
| 2026-04-20 07:14 | 52.43060 | 127.93727 | 33550 ft | 478 kts | 307° |
| 2026-04-20 07:15 | 52.47322 | 127.85347 | 33551 ft | 478 kts | 307° |
| 2026-04-20 07:15 | 52.51577 | 127.76965 | 33546 ft | 478 kts | 307° |
| 2026-04-20 07:16 | 52.55831 | 127.68560 | 33544 ft | 478 kts | 307° |
| 2026-04-20 07:16 | 52.60081 | 127.60149 | 33547 ft | 478 kts | 307° |
| 2026-04-20 07:17 | 52.64316 | 127.51722 | 33546 ft | 478 kts | 307° |
| 2026-04-20 07:17 | 52.68539 | 127.43274 | 33538 ft | 477 kts | 307° |
| 2026-04-20 07:18 | 52.72744 | 127.34794 | 33537 ft | 477 kts | 307° |
| 2026-04-20 07:18 | 52.76927 | 127.26285 | 33528 ft | 477 kts | 307° |
| 2026-04-20 07:19 | 52.81109 | 127.17749 | 33532 ft | 478 kts | 307° |
| 2026-04-20 07:19 | 52.85281 | 127.09203 | 33529 ft | 478 kts | 307° |
| 2026-04-20 07:20 | 52.89460 | 127.00634 | 33526 ft | 478 kts | 307° |
| 2026-04-20 07:20 | 52.93654 | 126.92056 | 33530 ft | 479 kts | 307° |
| 2026-04-20 07:21 | 52.97832 | 126.83438 | 33534 ft | 479 kts | 307° |
| 2026-04-20 07:21 | 53.02005 | 126.74782 | 33531 ft | 480 kts | 307° |
| 2026-04-20 07:22 | 53.06177 | 126.66114 | 33530 ft | 481 kts | 307° |
| 2026-04-20 07:22 | 53.10355 | 126.57423 | 33530 ft | 481 kts | 307° |
| 2026-04-20 07:23 | 53.14525 | 126.48716 | 33530 ft | 481 kts | 307° |
| 2026-04-20 07:23 | 53.18687 | 126.39974 | 33529 ft | 482 kts | 307° |
| 2026-04-20 07:24 | 53.22846 | 126.31210 | 33538 ft | 482 kts | 307° |
| 2026-04-20 07:24 | 53.26976 | 126.22505 | 33527 ft | 482 kts | 307° |
| 2026-04-20 07:25 | 53.31159 | 126.13649 | 33528 ft | 482 kts | 307° |
| 2026-04-20 07:25 | 53.35301 | 126.04818 | 33532 ft | 482 kts | 307° |
| 2026-04-20 07:26 | 53.39437 | 125.95966 | 33532 ft | 483 kts | 307° |
| 2026-04-20 07:26 | 53.43572 | 125.87083 | 33531 ft | 483 kts | 307° |
| 2026-04-20 07:27 | 53.47065 | 125.77538 | 33526 ft | 480 kts | 291° |
| 2026-04-20 07:27 | 53.48930 | 125.66894 | 33527 ft | 478 kts | 282° |
| 2026-04-20 07:28 | 53.50535 | 125.55978 | 33530 ft | 478 kts | 282° |
| 2026-04-20 07:28 | 53.52124 | 125.45120 | 33526 ft | 479 kts | 282° |
| 2026-04-20 07:29 | 53.53702 | 125.34250 | 33525 ft | 479 kts | 282° |
| 2026-04-20 07:29 | 53.55267 | 125.23360 | 33524 ft | 479 kts | 282° |
| 2026-04-20 07:30 | 53.56822 | 125.12466 | 33524 ft | 479 kts | 282° |
| 2026-04-20 07:30 | 53.58366 | 125.01563 | 33525 ft | 479 kts | 282° |
| 2026-04-20 07:31 | 53.59897 | 124.90641 | 33523 ft | 479 kts | 282° |
| 2026-04-20 07:31 | 53.61426 | 124.79718 | 33527 ft | 480 kts | 282° |
| 2026-04-20 07:32 | 53.62943 | 124.68771 | 33524 ft | 480 kts | 282° |
| 2026-04-20 07:32 | 53.64450 | 124.57813 | 33526 ft | 480 kts | 282° |
| 2026-04-20 07:33 | 53.65947 | 124.46842 | 33526 ft | 480 kts | 282° |